sensor_id;sensor_type;location;lat;lon;timestamp;pressure;altitude;pressure_sealevel;temperature;humidity
74708;BME280;63360;50.104;8.074;2022-12-18T00:02:10;98269.63;;;-6.93;100.00
74708;BME280;63360;50.104;8.074;2022-12-18T00:04:36;98264.13;;;-6.96;100.00
74708;BME280;63360;50.104;8.074;2022-12-18T00:07:02;98263.97;;;-6.95;100.00
74708;BME280;63360;50.104;8.074;2022-12-18T00:09:29;98260.19;;;-6.99;100.00
74708;BME280;63360;50.104;8.074;2022-12-18T00:12:05;98256.56;;;-7.04;100.00
74708;BME280;63360;50.104;8.074;2022-12-18T00:14:41;98260.50;;;-7.02;100.00
74708;BME280;63360;50.104;8.074;2022-12-18T00:17:07;98271.69;;;-6.96;100.00
74708;BME280;63360;50.104;8.074;2022-12-18T00:19:34;98268.72;;;-7.00;100.00
74708;BME280;63360;50.104;8.074;2022-12-18T00:22:00;98261.72;;;-7.20;100.00
74708;BME280;63360;50.104;8.074;2022-12-18T00:24:27;98262.88;;;-7.31;100.00
74708;BME280;63360;50.104;8.074;2022-12-18T00:26:53;98246.16;;;-7.32;100.00
74708;BME280;63360;50.104;8.074;2022-12-18T00:29:19;98251.81;;;-7.30;100.00
74708;BME280;63360;50.104;8.074;2022-12-18T00:31:46;98251.06;;;-7.39;100.00
74708;BME280;63360;50.104;8.074;2022-12-18T00:34:12;98256.69;;;-7.28;100.00
74708;BME280;63360;50.104;8.074;2022-12-18T00:36:39;98257.78;;;-7.23;100.00
74708;BME280;63360;50.104;8.074;2022-12-18T00:39:06;98254.16;;;-7.28;100.00
74708;BME280;63360;50.104;8.074;2022-12-18T00:41:32;98254.50;;;-7.31;100.00
74708;BME280;63360;50.104;8.074;2022-12-18T00:44:18;98277.31;;;-7.09;100.00
74708;BME280;63360;50.104;8.074;2022-12-18T00:46:45;98259.81;;;-7.18;100.00
74708;BME280;63360;50.104;8.074;2022-12-18T00:49:12;98266.13;;;-7.14;100.00
74708;BME280;63360;50.104;8.074;2022-12-18T00:51:38;98262.13;;;-7.09;100.00
74708;BME280;63360;50.104;8.074;2022-12-18T00:54:05;98263.25;;;-7.11;100.00
74708;BME280;63360;50.104;8.074;2022-12-18T00:56:31;98264.38;;;-7.14;100.00
74708;BME280;63360;50.104;8.074;2022-12-18T00:58:58;98268.47;;;-7.13;100.00
74708;BME280;63360;50.104;8.074;2022-12-18T01:01:24;98279.56;;;-6.91;100.00
74708;BME280;63360;50.104;8.074;2022-12-18T01:03:51;98268.72;;;-7.00;100.00
74708;BME280;63360;50.104;8.074;2022-12-18T01:06:17;98270.50;;;-7.08;100.00
74708;BME280;63360;50.104;8.074;2022-12-18T01:08:43;98283.53;;;-6.97;100.00
74708;BME280;63360;50.104;8.074;2022-12-18T01:11:15;98288.16;;;-7.00;100.00
74708;BME280;63360;50.104;8.074;2022-12-18T01:13:42;98281.19;;;-6.98;100.00
74708;BME280;63360;50.104;8.074;2022-12-18T01:16:12;98273.63;;;-6.98;100.00
74708;BME280;63360;50.104;8.074;2022-12-18T01:18:38;98275.03;;;-6.96;100.00
74708;BME280;63360;50.104;8.074;2022-12-18T01:21:10;98273.72;;;-6.92;100.00
74708;BME280;63360;50.104;8.074;2022-12-18T01:23:37;98287.91;;;-6.83;100.00
74708;BME280;63360;50.104;8.074;2022-12-18T01:26:09;98294.41;;;-6.88;100.00
74708;BME280;63360;50.104;8.074;2022-12-18T01:28:36;98302.13;;;-6.82;100.00
74708;BME280;63360;50.104;8.074;2022-12-18T01:33:37;98303.31;;;-6.92;100.00
74708;BME280;63360;50.104;8.074;2022-12-18T01:36:04;98307.84;;;-6.88;100.00
74708;BME280;63360;50.104;8.074;2022-12-18T01:38:31;98314.81;;;-6.90;100.00
74708;BME280;63360;50.104;8.074;2022-12-18T01:40:58;98302.84;;;-6.96;100.00
74708;BME280;63360;50.104;8.074;2022-12-18T01:43:46;98303.44;;;-6.94;100.00
74708;BME280;63360;50.104;8.074;2022-12-18T01:46:13;98302.47;;;-6.85;100.00
74708;BME280;63360;50.104;8.074;2022-12-18T01:48:41;98287.00;;;-6.90;100.00
74708;BME280;63360;50.104;8.074;2022-12-18T01:51:10;98297.56;;;-6.86;100.00
74708;BME280;63360;50.104;8.074;2022-12-18T01:53:39;98299.13;;;-6.85;100.00
74708;BME280;63360;50.104;8.074;2022-12-18T01:56:07;98292.69;;;-6.88;100.00
74708;BME280;63360;50.104;8.074;2022-12-18T01:58:57;98288.00;;;-6.99;100.00
74708;BME280;63360;50.104;8.074;2022-12-18T02:01:26;98292.72;;;-6.96;100.00
74708;BME280;63360;50.104;8.074;2022-12-18T02:03:53;98291.63;;;-7.01;100.00
74708;BME280;63360;50.104;8.074;2022-12-18T02:06:34;98291.47;;;-7.00;100.00
74708;BME280;63360;50.104;8.074;2022-12-18T02:12:15;98293.00;;;-6.91;100.00
74708;BME280;63360;50.104;8.074;2022-12-18T02:15:02;98275.91;;;-6.89;100.00
74708;BME280;63360;50.104;8.074;2022-12-18T02:17:37;98285.97;;;-6.81;100.00
74708;BME280;63360;50.104;8.074;2022-12-18T02:20:14;98277.78;;;-6.83;100.00
74708;BME280;63360;50.104;8.074;2022-12-18T02:27:56;98265.75;;;-6.81;100.00
74708;BME280;63360;50.104;8.074;2022-12-18T02:30:27;98253.28;;;-6.82;100.00
74708;BME280;63360;50.104;8.074;2022-12-18T02:32:55;98257.09;;;-6.86;100.00
74708;BME280;63360;50.104;8.074;2022-12-18T02:35:25;98249.69;;;-6.88;100.00
74708;BME280;63360;50.104;8.074;2022-12-18T02:37:54;98270.41;;;-6.69;100.00
74708;BME280;63360;50.104;8.074;2022-12-18T02:40:23;98252.25;;;-6.73;100.00
74708;BME280;63360;50.104;8.074;2022-12-18T02:42:50;98275.38;;;-6.76;100.00
74708;BME280;63360;50.104;8.074;2022-12-18T02:45:17;98254.22;;;-6.83;100.00
74708;BME280;63360;50.104;8.074;2022-12-18T02:47:45;98264.41;;;-6.68;100.00
74708;BME280;63360;50.104;8.074;2022-12-18T02:50:24;98258.28;;;-6.74;100.00
74708;BME280;63360;50.104;8.074;2022-12-18T02:53:08;98280.63;;;-6.55;100.00
74708;BME280;63360;50.104;8.074;2022-12-18T02:56:10;98283.28;;;-6.56;100.00
74708;BME280;63360;50.104;8.074;2022-12-18T02:59:09;98279.22;;;-6.57;100.00
74708;BME280;63360;50.104;8.074;2022-12-18T03:01:49;98269.41;;;-6.60;100.00
74708;BME280;63360;50.104;8.074;2022-12-18T03:04:43;98256.13;;;-6.62;100.00
74708;BME280;63360;50.104;8.074;2022-12-18T03:07:33;98281.84;;;-6.51;100.00
74708;BME280;63360;50.104;8.074;2022-12-18T03:10:01;98284.22;;;-6.49;100.00
74708;BME280;63360;50.104;8.074;2022-12-18T03:12:35;98282.03;;;-6.52;100.00
74708;BME280;63360;50.104;8.074;2022-12-18T03:15:18;98273.84;;;-6.62;100.00
74708;BME280;63360;50.104;8.074;2022-12-18T03:17:50;98280.72;;;-6.48;100.00
74708;BME280;63360;50.104;8.074;2022-12-18T03:20:20;98278.56;;;-6.59;100.00
74708;BME280;63360;50.104;8.074;2022-12-18T03:22:52;98260.59;;;-6.64;100.00
74708;BME280;63360;50.104;8.074;2022-12-18T03:25:21;98261.56;;;-6.65;100.00
74708;BME280;63360;50.104;8.074;2022-12-18T03:27:51;98267.78;;;-6.53;100.00
74708;BME280;63360;50.104;8.074;2022-12-18T03:30:20;98256.31;;;-6.64;100.00
74708;BME280;63360;50.104;8.074;2022-12-18T03:32:54;98267.97;;;-6.55;100.00
74708;BME280;63360;50.104;8.074;2022-12-18T03:35:29;98267.50;;;-6.58;100.00
74708;BME280;63360;50.104;8.074;2022-12-18T03:37:57;98263.97;;;-6.49;100.00
74708;BME280;63360;50.104;8.074;2022-12-18T03:40:30;98271.38;;;-6.48;100.00
74708;BME280;63360;50.104;8.074;2022-12-18T03:43:10;98267.25;;;-6.49;100.00
74708;BME280;63360;50.104;8.074;2022-12-18T03:45:42;98244.50;;;-6.71;100.00
74708;BME280;63360;50.104;8.074;2022-12-18T03:51:13;98262.50;;;-6.66;100.00
74708;BME280;63360;50.104;8.074;2022-12-18T03:53:47;98256.88;;;-6.77;100.00
74708;BME280;63360;50.104;8.074;2022-12-18T03:56:18;98241.53;;;-6.75;100.00
74708;BME280;63360;50.104;8.074;2022-12-18T03:58:47;98237.72;;;-6.71;100.00
74708;BME280;63360;50.104;8.074;2022-12-18T04:01:16;98258.97;;;-6.57;100.00
74708;BME280;63360;50.104;8.074;2022-12-18T04:03:46;98254.53;;;-6.55;100.00
74708;BME280;63360;50.104;8.074;2022-12-18T04:06:14;98249.47;;;-6.55;100.00
74708;BME280;63360;50.104;8.074;2022-12-18T04:08:43;98236.97;;;-6.57;100.00
74708;BME280;63360;50.104;8.074;2022-12-18T04:11:10;98233.03;;;-6.59;100.00
74708;BME280;63360;50.104;8.074;2022-12-18T04:13:37;98240.75;;;-6.53;100.00
74708;BME280;63360;50.104;8.074;2022-12-18T04:16:05;98241.88;;;-6.55;100.00
74708;BME280;63360;50.104;8.074;2022-12-18T04:18:32;98226.84;;;-6.57;100.00
74708;BME280;63360;50.104;8.074;2022-12-18T04:20:58;98233.09;;;-6.67;100.00
74708;BME280;63360;50.104;8.074;2022-12-18T04:23:25;98248.53;;;-6.62;100.00
74708;BME280;63360;50.104;8.074;2022-12-18T04:25:51;98237.06;;;-6.73;100.00
74708;BME280;63360;50.104;8.074;2022-12-18T04:28:17;98224.56;;;-6.66;100.00
74708;BME280;63360;50.104;8.074;2022-12-18T04:30:44;98237.88;;;-6.50;100.00
74708;BME280;63360;50.104;8.074;2022-12-18T04:33:16;98218.38;;;-6.64;100.00
74708;BME280;63360;50.104;8.074;2022-12-18T04:35:43;98223.25;;;-6.62;100.00
74708;BME280;63360;50.104;8.074;2022-12-18T04:38:09;98230.06;;;-6.63;100.00
74708;BME280;63360;50.104;8.074;2022-12-18T04:40:37;98230.41;;;-6.66;100.00
74708;BME280;63360;50.104;8.074;2022-12-18T04:43:04;98226.91;;;-6.65;100.00
74708;BME280;63360;50.104;8.074;2022-12-18T04:45:31;98227.16;;;-6.60;100.00
74708;BME280;63360;50.104;8.074;2022-12-18T04:47:59;98231.34;;;-6.67;100.00
74708;BME280;63360;50.104;8.074;2022-12-18T04:50:26;98247.41;;;-6.60;100.00
74708;BME280;63360;50.104;8.074;2022-12-18T04:52:53;98234.34;;;-6.63;100.00
74708;BME280;63360;50.104;8.074;2022-12-18T04:55:20;98231.63;;;-6.62;100.00
74708;BME280;63360;50.104;8.074;2022-12-18T04:57:46;98229.94;;;-6.69;100.00
74708;BME280;63360;50.104;8.074;2022-12-18T05:00:13;98250.03;;;-6.68;100.00
74708;BME280;63360;50.104;8.074;2022-12-18T05:02:40;98263.28;;;-6.66;100.00
74708;BME280;63360;50.104;8.074;2022-12-18T05:05:07;98250.03;;;-6.68;100.00
74708;BME280;63360;50.104;8.074;2022-12-18T05:07:34;98249.13;;;-6.75;100.00
74708;BME280;63360;50.104;8.074;2022-12-18T05:10:00;98256.94;;;-6.62;100.00
74708;BME280;63360;50.104;8.074;2022-12-18T05:12:26;98250.41;;;-6.56;100.00
74708;BME280;63360;50.104;8.074;2022-12-18T05:14:53;98251.00;;;-6.54;100.00
74708;BME280;63360;50.104;8.074;2022-12-18T05:17:19;98259.06;;;-6.51;100.00
74708;BME280;63360;50.104;8.074;2022-12-18T05:19:46;98254.34;;;-6.54;100.00
74708;BME280;63360;50.104;8.074;2022-12-18T05:22:12;98237.81;;;-6.64;100.00
74708;BME280;63360;50.104;8.074;2022-12-18T05:24:38;98256.72;;;-6.52;100.00
74708;BME280;63360;50.104;8.074;2022-12-18T05:27:05;98250.84;;;-6.53;100.00
74708;BME280;63360;50.104;8.074;2022-12-18T05:29:31;98245.94;;;-6.54;100.00
74708;BME280;63360;50.104;8.074;2022-12-18T05:31:57;98252.59;;;-6.53;100.00
74708;BME280;63360;50.104;8.074;2022-12-18T05:34:24;98239.66;;;-6.58;100.00
74708;BME280;63360;50.104;8.074;2022-12-18T05:36:50;98247.00;;;-6.49;100.00
74708;BME280;63360;50.104;8.074;2022-12-18T05:39:17;98237.06;;;-6.50;100.00
74708;BME280;63360;50.104;8.074;2022-12-18T05:41:43;98240.75;;;-6.53;100.00
74708;BME280;63360;50.104;8.074;2022-12-18T05:44:09;98250.19;;;-6.47;100.00
74708;BME280;63360;50.104;8.074;2022-12-18T05:46:36;98238.53;;;-6.56;100.00
74708;BME280;63360;50.104;8.074;2022-12-18T05:49:02;98223.09;;;-6.61;100.00
74708;BME280;63360;50.104;8.074;2022-12-18T05:51:29;98243.53;;;-6.48;100.00
74708;BME280;63360;50.104;8.074;2022-12-18T05:53:55;98215.31;;;-6.59;100.00
74708;BME280;63360;50.104;8.074;2022-12-18T05:56:22;98226.97;;;-6.50;100.00
74708;BME280;63360;50.104;8.074;2022-12-18T05:58:53;98224.31;;;-6.57;100.00
74708;BME280;63360;50.104;8.074;2022-12-18T06:01:24;98233.59;;;-6.49;100.00
74708;BME280;63360;50.104;8.074;2022-12-18T06:03:52;98239.69;;;-6.44;100.00
74708;BME280;63360;50.104;8.074;2022-12-18T06:06:22;98231.91;;;-6.57;100.00
74708;BME280;63360;50.104;8.074;2022-12-18T06:08:49;98245.13;;;-6.47;100.00
74708;BME280;63360;50.104;8.074;2022-12-18T06:11:18;98257.78;;;-6.47;100.00
74708;BME280;63360;50.104;8.074;2022-12-18T06:13:45;98236.19;;;-6.57;100.00
74708;BME280;63360;50.104;8.074;2022-12-18T06:16:12;98257.47;;;-6.52;100.00
74708;BME280;63360;50.104;8.074;2022-12-18T06:18:39;98259.78;;;-6.42;100.00
74708;BME280;63360;50.104;8.074;2022-12-18T06:21:05;98256.00;;;-6.46;100.00
74708;BME280;63360;50.104;8.074;2022-12-18T06:23:31;98263.00;;;-6.48;100.00
74708;BME280;63360;50.104;8.074;2022-12-18T06:25:58;98258.78;;;-6.56;100.00
74708;BME280;63360;50.104;8.074;2022-12-18T06:28:24;98259.56;;;-6.55;100.00
74708;BME280;63360;50.104;8.074;2022-12-18T06:30:51;98273.84;;;-6.40;100.00
74708;BME280;63360;50.104;8.074;2022-12-18T06:33:17;98276.53;;;-6.41;100.00
74708;BME280;63360;50.104;8.074;2022-12-18T06:35:44;98259.25;;;-6.52;100.00
74708;BME280;63360;50.104;8.074;2022-12-18T06:38:10;98281.31;;;-6.46;100.00
74708;BME280;63360;50.104;8.074;2022-12-18T06:40:37;98264.84;;;-6.65;100.00
74708;BME280;63360;50.104;8.074;2022-12-18T06:43:05;98277.09;;;-6.54;100.00
74708;BME280;63360;50.104;8.074;2022-12-18T06:45:32;98272.84;;;-6.53;100.00
74708;BME280;63360;50.104;8.074;2022-12-18T06:47:59;98270.91;;;-6.51;100.00
74708;BME280;63360;50.104;8.074;2022-12-18T06:50:25;98267.59;;;-6.52;100.00
74708;BME280;63360;50.104;8.074;2022-12-18T06:52:51;98275.38;;;-6.53;100.00
74708;BME280;63360;50.104;8.074;2022-12-18T06:55:18;98270.66;;;-6.56;100.00
74708;BME280;63360;50.104;8.074;2022-12-18T06:57:44;98274.56;;;-6.54;100.00
74708;BME280;63360;50.104;8.074;2022-12-18T07:00:11;98278.84;;;-6.54;100.00
74708;BME280;63360;50.104;8.074;2022-12-18T07:02:37;98288.03;;;-6.53;100.00
74708;BME280;63360;50.104;8.074;2022-12-18T07:05:04;98265.03;;;-6.66;100.00
74708;BME280;63360;50.104;8.074;2022-12-18T07:07:36;98265.59;;;-6.56;100.00
74708;BME280;63360;50.104;8.074;2022-12-18T07:10:03;98280.44;;;-6.53;100.00
74708;BME280;63360;50.104;8.074;2022-12-18T07:12:29;98269.84;;;-6.57;100.00
74708;BME280;63360;50.104;8.074;2022-12-18T07:14:55;98280.88;;;-6.50;100.00
74708;BME280;63360;50.104;8.074;2022-12-18T07:17:22;98284.97;;;-6.49;100.00
74708;BME280;63360;50.104;8.074;2022-12-18T07:19:48;98269.53;;;-6.54;100.00
74708;BME280;63360;50.104;8.074;2022-12-18T07:22:15;98280.38;;;-6.45;100.00
74708;BME280;63360;50.104;8.074;2022-12-18T07:24:41;98272.78;;;-6.45;100.00
74708;BME280;63360;50.104;8.074;2022-12-18T07:27:07;98275.03;;;-6.50;100.00
74708;BME280;63360;50.104;8.074;2022-12-18T07:29:35;98266.09;;;-6.61;100.00
74708;BME280;63360;50.104;8.074;2022-12-18T07:32:01;98274.53;;;-6.46;100.00
74708;BME280;63360;50.104;8.074;2022-12-18T07:34:28;98286.75;;;-6.49;100.00
74708;BME280;63360;50.104;8.074;2022-12-18T07:36:54;98267.97;;;-6.55;100.00
74708;BME280;63360;50.104;8.074;2022-12-18T07:39:21;98272.84;;;-6.53;100.00
74708;BME280;63360;50.104;8.074;2022-12-18T07:41:47;98270.31;;;-6.53;100.00
74708;BME280;63360;50.104;8.074;2022-12-18T07:44:33;98274.91;;;-6.57;100.00
74708;BME280;63360;50.104;8.074;2022-12-18T07:47:00;98284.31;;;-6.65;100.00
74708;BME280;63360;50.104;8.074;2022-12-18T07:49:27;98292.28;;;-6.54;100.00
74708;BME280;63360;50.104;8.074;2022-12-18T07:51:55;98297.34;;;-6.54;100.00
74708;BME280;63360;50.104;8.074;2022-12-18T07:54:23;98284.56;;;-6.52;100.00
74708;BME280;63360;50.104;8.074;2022-12-18T07:56:50;98302.53;;;-6.47;100.00
74708;BME280;63360;50.104;8.074;2022-12-18T07:59:17;98301.00;;;-6.56;100.00
74708;BME280;63360;50.104;8.074;2022-12-18T08:01:43;98306.81;;;-6.48;100.00
74708;BME280;63360;50.104;8.074;2022-12-18T08:04:12;98295.00;;;-6.55;100.00
74708;BME280;63360;50.104;8.074;2022-12-18T08:06:38;98307.75;;;-6.49;100.00
74708;BME280;63360;50.104;8.074;2022-12-18T08:09:10;98298.47;;;-6.56;100.00
74708;BME280;63360;50.104;8.074;2022-12-18T08:11:36;98288.94;;;-6.69;100.00
74708;BME280;63360;50.104;8.074;2022-12-18T08:14:03;98285.28;;;-6.66;100.00
74708;BME280;63360;50.104;8.074;2022-12-18T08:16:29;98291.06;;;-6.58;100.00
74708;BME280;63360;50.104;8.074;2022-12-18T08:18:56;98295.44;;;-6.52;100.00
74708;BME280;63360;50.104;8.074;2022-12-18T08:21:28;98290.28;;;-6.58;100.00
74708;BME280;63360;50.104;8.074;2022-12-18T08:23:56;98292.63;;;-6.57;100.00
74708;BME280;63360;50.104;8.074;2022-12-18T08:26:24;98297.28;;;-6.46;100.00
74708;BME280;63360;50.104;8.074;2022-12-18T08:28:51;98270.78;;;-6.50;100.00
74708;BME280;63360;50.104;8.074;2022-12-18T08:31:18;98277.97;;;-6.61;100.00
74708;BME280;63360;50.104;8.074;2022-12-18T08:33:48;98294.16;;;-6.48;100.00
74708;BME280;63360;50.104;8.074;2022-12-18T08:36:16;98287.50;;;-6.49;100.00
74708;BME280;63360;50.104;8.074;2022-12-18T08:38:42;98258.00;;;-6.56;100.00
74708;BME280;63360;50.104;8.074;2022-12-18T08:41:12;98263.25;;;-6.58;100.00
74708;BME280;63360;50.104;8.074;2022-12-18T08:43:38;98259.66;;;-6.49;100.00
74708;BME280;63360;50.104;8.074;2022-12-18T08:46:24;98264.56;;;-6.47;100.00
74708;BME280;63360;50.104;8.074;2022-12-18T08:48:52;98258.22;;;-6.43;100.00
74708;BME280;63360;50.104;8.074;2022-12-18T08:51:19;98267.03;;;-6.39;100.00
74708;BME280;63360;50.104;8.074;2022-12-18T08:53:46;98264.50;;;-6.39;100.00
74708;BME280;63360;50.104;8.074;2022-12-18T08:56:13;98257.25;;;-6.42;100.00
74708;BME280;63360;50.104;8.074;2022-12-18T08:58:41;98249.22;;;-6.46;100.00
74708;BME280;63360;50.104;8.074;2022-12-18T09:01:10;98253.84;;;-6.49;100.00
74708;BME280;63360;50.104;8.074;2022-12-18T09:03:37;98277.91;;;-6.31;100.00
74708;BME280;63360;50.104;8.074;2022-12-18T09:06:05;98262.84;;;-6.47;100.00
74708;BME280;63360;50.104;8.074;2022-12-18T09:08:32;98268.44;;;-6.37;100.00
74708;BME280;63360;50.104;8.074;2022-12-18T09:11:03;98259.56;;;-6.55;100.00
74708;BME280;63360;50.104;8.074;2022-12-18T09:13:29;98275.38;;;-6.53;100.00
74708;BME280;63360;50.104;8.074;2022-12-18T09:15:56;98285.78;;;-6.48;100.00
74708;BME280;63360;50.104;8.074;2022-12-18T09:18:23;98295.94;;;-6.56;100.00
74708;BME280;63360;50.104;8.074;2022-12-18T09:20:49;98298.66;;;-6.58;100.00
74708;BME280;63360;50.104;8.074;2022-12-18T09:23:20;98301.34;;;-6.59;100.00
74708;BME280;63360;50.104;8.074;2022-12-18T09:25:47;98302.25;;;-6.75;100.00
74708;BME280;63360;50.104;8.074;2022-12-18T09:28:15;98289.69;;;-6.91;100.00
74708;BME280;63360;50.104;8.074;2022-12-18T09:30:45;98285.38;;;-6.83;100.00
74708;BME280;63360;50.104;8.074;2022-12-18T09:33:12;98298.69;;;-6.89;100.00
74708;BME280;63360;50.104;8.074;2022-12-18T09:35:40;98278.63;;;-6.90;100.00
74708;BME280;63360;50.104;8.074;2022-12-18T09:38:09;98278.63;;;-6.90;100.00
74708;BME280;63360;50.104;8.074;2022-12-18T09:40:51;98293.28;;;-6.86;100.00
74708;BME280;63360;50.104;8.074;2022-12-18T09:43:35;98284.28;;;-6.88;100.00
74708;BME280;63360;50.104;8.074;2022-12-18T09:46:06;98294.31;;;-6.72;100.00
74708;BME280;63360;50.104;8.074;2022-12-18T09:48:42;98278.94;;;-6.93;100.00
74708;BME280;63360;50.104;8.074;2022-12-18T09:51:17;98286.53;;;-6.93;100.00
74708;BME280;63360;50.104;8.074;2022-12-18T09:53:52;98286.63;;;-6.79;100.00
74708;BME280;63360;50.104;8.074;2022-12-18T09:56:22;98278.94;;;-6.93;100.00
74708;BME280;63360;50.104;8.074;2022-12-18T09:58:55;98294.41;;;-6.88;100.00
74708;BME280;63360;50.104;8.074;2022-12-18T10:01:23;98292.69;;;-6.88;100.00
74708;BME280;63360;50.104;8.074;2022-12-18T10:03:50;98277.03;;;-6.91;100.00
74708;BME280;63360;50.104;8.074;2022-12-18T10:09:11;98287.84;;;-6.74;100.00
74708;BME280;63360;50.104;8.074;2022-12-18T10:17:19;98279.16;;;-6.49;100.00
74708;BME280;63360;50.104;8.074;2022-12-18T10:22:34;98274.13;;;-6.35;100.00
74708;BME280;63360;50.104;8.074;2022-12-18T10:28:00;98250.63;;;-6.43;100.00
74708;BME280;63360;50.104;8.074;2022-12-18T10:30:33;98262.88;;;-6.32;100.00
74708;BME280;63360;50.104;8.074;2022-12-18T10:33:01;98258.31;;;-6.37;100.00
74708;BME280;63360;50.104;8.074;2022-12-18T10:35:27;98264.94;;;-6.36;100.00
74708;BME280;63360;50.104;8.074;2022-12-18T10:43:23;98256.84;;;-6.31;100.00
74708;BME280;63360;50.104;8.074;2022-12-18T10:51:21;98257.47;;;-6.29;100.00
74708;BME280;63360;50.104;8.074;2022-12-18T10:53:54;98254.13;;;-6.30;100.00
74708;BME280;63360;50.104;8.074;2022-12-18T10:56:21;98267.34;;;-6.20;100.00
74708;BME280;63360;50.104;8.074;2022-12-18T10:58:58;98242.28;;;-6.29;100.00
74708;BME280;63360;50.104;8.074;2022-12-18T11:01:25;98245.06;;;-6.24;100.00
74708;BME280;63360;50.104;8.074;2022-12-18T11:06:27;98242.47;;;-6.16;100.00
74708;BME280;63360;50.104;8.074;2022-12-18T11:09:00;98252.16;;;-6.20;100.00
74708;BME280;63360;50.104;8.074;2022-12-18T11:11:28;98258.03;;;-6.04;100.00
74708;BME280;63360;50.104;8.074;2022-12-18T11:14:04;98270.44;;;-6.09;100.00
74708;BME280;63360;50.104;8.074;2022-12-18T11:16:42;98261.06;;;-6.09;100.00
74708;BME280;63360;50.104;8.074;2022-12-18T11:19:35;98259.66;;;-6.11;100.00
74708;BME280;63360;50.104;8.074;2022-12-18T11:27:48;98246.00;;;-6.62;100.00
74708;BME280;63360;50.104;8.074;2022-12-18T11:30:30;98246.72;;;-6.68;100.00
74708;BME280;63360;50.104;8.074;2022-12-18T11:33:15;98255.75;;;-6.51;100.00
74708;BME280;63360;50.104;8.074;2022-12-18T11:35:53;98248.00;;;-6.35;100.00
74708;BME280;63360;50.104;8.074;2022-12-18T11:38:27;98246.41;;;-6.51;100.00
74708;BME280;63360;50.104;8.074;2022-12-18T11:41:00;98243.34;;;-6.61;100.00
74708;BME280;63360;50.104;8.074;2022-12-18T11:43:38;98246.59;;;-6.52;100.00
74708;BME280;63360;50.104;8.074;2022-12-18T11:46:11;98260.66;;;-6.50;100.00
74708;BME280;63360;50.104;8.074;2022-12-18T11:48:59;98267.50;;;-6.58;100.00
74708;BME280;63360;50.104;8.074;2022-12-18T11:51:34;98263.19;;;-6.50;100.00
74708;BME280;63360;50.104;8.074;2022-12-18T11:54:12;98248.00;;;-6.72;100.00
74708;BME280;63360;50.104;8.074;2022-12-18T11:56:51;98262.50;;;-6.66;100.00
74708;BME280;63360;50.104;8.074;2022-12-18T11:59:39;98245.78;;;-6.76;100.00
74708;BME280;63360;50.104;8.074;2022-12-18T12:07:51;98240.34;;;-6.64;100.00
74708;BME280;63360;50.104;8.074;2022-12-18T12:22:00;98253.97;;;-6.65;100.00
74708;BME280;63360;50.104;8.074;2022-12-18T12:30:11;98230.78;;;-6.77;100.00
74708;BME280;63360;50.104;8.074;2022-12-18T12:32:53;98229.34;;;-6.71;100.00
74708;BME280;63360;50.104;8.074;2022-12-18T12:35:44;98232.03;;;-6.73;100.00
74708;BME280;63360;50.104;8.074;2022-12-18T12:38:17;98216.09;;;-6.73;100.00
74708;BME280;63360;50.104;8.074;2022-12-18T12:40:54;98227.47;;;-6.78;100.00
74708;BME280;63360;50.104;8.074;2022-12-18T12:43:38;98221.56;;;-6.70;100.00
74708;BME280;63360;50.104;8.074;2022-12-18T12:46:17;98217.34;;;-6.78;100.00
74708;BME280;63360;50.104;8.074;2022-12-18T12:48:49;98199.38;;;-6.83;100.00
74708;BME280;63360;50.104;8.074;2022-12-18T12:51:21;98216.50;;;-6.70;100.00
74708;BME280;63360;50.104;8.074;2022-12-18T12:53:49;98212.19;;;-6.61;100.00
74708;BME280;63360;50.104;8.074;2022-12-18T12:56:18;98210.03;;;-6.50;100.00
74708;BME280;63360;50.104;8.074;2022-12-18T12:58:58;98198.84;;;-6.55;100.00
74708;BME280;63360;50.104;8.074;2022-12-18T13:12:56;98188.81;;;-6.49;100.00
74708;BME280;63360;50.104;8.074;2022-12-18T13:15:33;98198.31;;;-6.51;100.00
74708;BME280;63360;50.104;8.074;2022-12-18T13:18:05;98189.97;;;-6.37;100.00
74708;BME280;63360;50.104;8.074;2022-12-18T13:21:11;98184.91;;;-6.37;100.00
74708;BME280;63360;50.104;8.074;2022-12-18T13:23:42;98178.97;;;-6.44;100.00
74708;BME280;63360;50.104;8.074;2022-12-18T13:28:54;98186.06;;;-6.39;100.00
74708;BME280;63360;50.104;8.074;2022-12-18T13:34:22;98189.00;;;-6.36;100.00
74708;BME280;63360;50.104;8.074;2022-12-18T13:36:55;98191.66;;;-6.29;100.00
74708;BME280;63360;50.104;8.074;2022-12-18T13:39:25;98177.31;;;-6.37;100.00
74708;BME280;63360;50.104;8.074;2022-12-18T13:44:42;98170.59;;;-6.44;100.00
74708;BME280;63360;50.104;8.074;2022-12-18T13:49:52;98188.47;;;-6.46;100.00
74708;BME280;63360;50.104;8.074;2022-12-18T13:52:22;98194.78;;;-6.42;100.00
74708;BME280;63360;50.104;8.074;2022-12-18T13:54:52;98177.41;;;-6.45;100.00
74708;BME280;63360;50.104;8.074;2022-12-18T13:57:35;98198.88;;;-6.41;100.00
74708;BME280;63360;50.104;8.074;2022-12-18T14:00:26;98177.53;;;-6.61;100.00
74708;BME280;63360;50.104;8.074;2022-12-18T14:02:56;98191.75;;;-6.60;100.00
74708;BME280;63360;50.104;8.074;2022-12-18T14:08:01;98207.97;;;-6.69;100.00
74708;BME280;63360;50.104;8.074;2022-12-18T14:10:32;98199.03;;;-6.80;100.00
74708;BME280;63360;50.104;8.074;2022-12-18T14:13:28;98200.38;;;-6.92;100.00
74708;BME280;63360;50.104;8.074;2022-12-18T14:15:56;98190.06;;;-6.82;100.00
74708;BME280;63360;50.104;8.074;2022-12-18T14:21:02;98208.66;;;-6.75;100.00
74708;BME280;63360;50.104;8.074;2022-12-18T14:23:31;98200.25;;;-6.76;100.00
74708;BME280;63360;50.104;8.074;2022-12-18T14:25:59;98187.19;;;-6.79;100.00
74708;BME280;63360;50.104;8.074;2022-12-18T14:28:31;98178.47;;;-6.77;100.00
74708;BME280;63360;50.104;8.074;2022-12-18T14:30:58;98180.41;;;-6.79;100.00
74708;BME280;63360;50.104;8.074;2022-12-18T14:33:26;98186.34;;;-6.71;100.00
74708;BME280;63360;50.104;8.074;2022-12-18T14:36:04;98190.41;;;-6.70;100.00
74708;BME280;63360;50.104;8.074;2022-12-18T14:38:39;98184.38;;;-6.84;100.00
74708;BME280;63360;50.104;8.074;2022-12-18T14:41:10;98183.97;;;-6.73;100.00
74708;BME280;63360;50.104;8.074;2022-12-18T14:43:40;98185.03;;;-6.67;100.00
74708;BME280;63360;50.104;8.074;2022-12-18T14:46:27;98199.25;;;-6.66;100.00